Time;durP1;ratioP1;P1;durP2;ratioP2;P2;SDS_P1;SDS_P2;PMS_P1;PMS_P2;Temp;Humidity;BMP_temperature;BMP_pressure;BME280_temperature;BME280_humidity;BME280_pressure;Samples;Min_cycle;Max_cycle;Signal;HPM_P1;HPM_P2
2022/04/12 00:00:31;;;;;;;;;;;;;;;11.93;41.05;100933.38;5033868;28;20363;-85
2022/04/12 00:02:56;;;;;;;;;;;;;;;12.02;41.03;100936.06;5017144;28;19921;-86
2022/04/12 00:05:22;;;;;;;;;;;;;;;12.26;40.41;100933.47;5002715;28;19967;-87
2022/04/12 00:07:47;;;;;;;;;;;;;;;12.02;40.39;100930.75;5034866;28;19921;-87
2022/04/12 00:10:14;;;;;;;;;;;;;;;12.02;40.11;100936.91;5034520;28;19928;-89
2022/04/12 00:12:39;;;;;;;;;;;;;;;11.97;39.35;100938.34;5034864;28;19921;-88
2022/04/12 00:15:06;;;;;;;;;;;;;;;12.03;39.73;100929.78;5034969;28;20382;-90
2022/04/12 00:20:15;;;;;;;;;;;;;;;11.95;40.68;100924.41;5034591;28;19929;-90
2022/04/12 00:22:41;;;;;;;;;;;;;;;11.71;40.91;100927.81;5034624;28;19917;-89
2022/04/12 00:25:09;;;;;;;;;;;;;;;11.63;40.71;100920.63;5034494;28;20008;-88
2022/04/12 00:27:35;;;;;;;;;;;;;;;11.70;40.80;100926.97;5034643;28;19921;-90
2022/04/12 00:30:00;;;;;;;;;;;;;;;11.78;40.27;100919.06;5017547;28;19921;-88
2022/04/12 00:32:26;;;;;;;;;;;;;;;11.82;40.47;100916.91;5017370;28;19917;-89
2022/04/12 00:37:38;;;;;;;;;;;;;;;11.49;41.52;100910.59;4997133;28;19926;-91
2022/04/12 00:40:04;;;;;;;;;;;;;;;11.48;41.46;100911.56;4981193;28;19926;-87
2022/04/12 00:42:29;;;;;;;;;;;;;;;11.66;40.91;100915.00;4980144;28;20020;-86
2022/04/12 00:44:55;;;;;;;;;;;;;;;11.74;41.13;100916.88;5000275;28;19910;-89
2022/04/12 00:51:09;;;;;;;;;;;;;;;11.65;42.21;100907.19;5019548;28;19952;-87
2022/04/12 00:53:35;;;;;;;;;;;;;;;11.71;41.57;100904.75;5019384;28;19921;-89
2022/04/12 00:56:00;;;;;;;;;;;;;;;11.60;41.72;100904.19;5100805;22;19928;-88
2022/04/12 00:58:26;;;;;;;;;;;;;;;11.52;41.88;100889.03;5098617;28;19958;-88
2022/04/12 01:00:51;;;;;;;;;;;;;;;11.80;41.11;100898.47;5098458;28;19980;-89
2022/04/12 01:03:16;;;;;;;;;;;;;;;11.71;41.49;100896.78;5092719;28;20401;-86
2022/04/12 01:05:42;;;;;;;;;;;;;;;11.63;41.82;100904.69;5078464;28;20356;-85
2022/04/12 01:08:07;;;;;;;;;;;;;;;11.58;42.30;100900.84;5059736;28;20323;-86
2022/04/12 01:10:33;;;;;;;;;;;;;;;11.43;42.74;100892.66;5076293;28;19926;-86
2022/04/12 01:12:59;;;;;;;;;;;;;;;10.99;44.65;100889.25;5080693;28;19917;-87
2022/04/12 01:15:25;;;;;;;;;;;;;;;11.17;43.64;100894.50;5080697;28;19920;-86
2022/04/12 01:17:51;;;;;;;;;;;;;;;11.29;43.47;100891.41;5063035;28;20034;-86
2022/04/12 01:20:29;;;;;;;;;;;;;;;10.90;44.13;100895.50;5064160;28;19921;-86
2022/04/12 01:23:04;;;;;;;;;;;;;;;10.86;44.66;100889.66;5081505;28;19982;-87
2022/04/12 01:25:30;;;;;;;;;;;;;;;10.45;45.99;100895.59;5087162;28;19927;-84
2022/04/12 01:27:55;;;;;;;;;;;;;;;10.04;47.50;100885.59;5086324;28;19916;-88
2022/04/12 01:30:21;;;;;;;;;;;;;;;9.91;48.15;100898.34;5082695;28;20019;-87
2022/04/12 01:32:46;;;;;;;;;;;;;;;9.61;49.32;100894.19;5088474;28;19935;-87
2022/04/12 01:35:15;;;;;;;;;;;;;;;9.45;50.41;100896.59;5087919;28;19929;-87
2022/04/12 01:37:40;;;;;;;;;;;;;;;9.32;50.33;100896.94;5096014;28;19909;-85
2022/04/12 01:40:06;;;;;;;;;;;;;;;9.25;50.67;100893.19;5101091;28;19925;-85
2022/04/12 01:42:32;;;;;;;;;;;;;;;9.26;50.83;100892.22;5101419;28;19931;-86
2022/04/12 01:44:57;;;;;;;;;;;;;;;9.26;51.08;100900.16;5099276;28;19929;-84
2022/04/12 01:47:23;;;;;;;;;;;;;;;9.18;51.22;100903.53;5068582;28;19928;-85
2022/04/12 01:49:48;;;;;;;;;;;;;;;9.26;51.11;100895.72;5067187;28;19920;-88
2022/04/12 01:52:15;;;;;;;;;;;;;;;9.07;51.85;100889.66;5101303;28;19916;-88
2022/04/12 01:54:41;;;;;;;;;;;;;;;9.31;50.54;100895.28;5083896;28;19930;-88
2022/04/12 01:57:06;;;;;;;;;;;;;;;9.36;50.68;100895.69;5101264;28;19909;-85
2022/04/12 01:59:34;;;;;;;;;;;;;;;9.65;50.00;100895.53;5101507;28;19930;-85
2022/04/12 02:01:59;;;;;;;;;;;;;;;9.81;49.17;100896.56;5096261;28;19932;-85
2022/04/12 02:04:25;;;;;;;;;;;;;;;9.51;49.88;100896.84;5084574;28;19916;-88
2022/04/12 02:06:50;;;;;;;;;;;;;;;9.29;50.60;100899.88;5092059;28;19924;-85
2022/04/12 02:09:16;;;;;;;;;;;;;;;8.97;52.23;100896.78;5089999;28;19920;-85
2022/04/12 02:11:41;;;;;;;;;;;;;;;8.81;52.72;100898.22;5082582;28;19924;-85
2022/04/12 02:14:09;;;;;;;;;;;;;;;8.78;53.11;100895.81;5083977;28;19920;-86
2022/04/12 02:16:34;;;;;;;;;;;;;;;8.82;53.19;100896.38;5082206;28;19920;-87
2022/04/12 02:19:00;;;;;;;;;;;;;;;8.76;52.99;100887.22;5080373;28;19938;-86
2022/04/12 02:21:25;;;;;;;;;;;;;;;8.57;53.36;100892.53;5080473;28;20046;-88
2022/04/12 02:23:51;;;;;;;;;;;;;;;8.35;54.14;100887.53;5058613;28;19927;-86
2022/04/12 02:26:16;;;;;;;;;;;;;;;8.27;54.50;100882.91;5077234;28;19916;-87
2022/04/12 02:28:42;;;;;;;;;;;;;;;8.38;54.48;100892.53;5078992;28;19967;-86
2022/04/12 02:31:07;;;;;;;;;;;;;;;8.29;54.21;100888.06;5077541;28;19923;-87
2022/04/12 02:33:32;;;;;;;;;;;;;;;8.38;53.29;100887.25;5059622;28;19960;-89
2022/04/12 02:35:58;;;;;;;;;;;;;;;8.56;52.88;100882.91;5060124;28;19924;-87
2022/04/12 02:38:23;;;;;;;;;;;;;;;8.87;51.97;100882.75;5078660;28;19944;-88
2022/04/12 02:40:48;;;;;;;;;;;;;;;9.05;50.89;100878.41;5078016;28;19931;-89
2022/04/12 02:43:14;;;;;;;;;;;;;;;9.33;50.16;100882.75;5058642;28;19920;-88
2022/04/12 02:45:40;;;;;;;;;;;;;;;9.46;49.29;100880.59;5060967;28;19924;-89
2022/04/12 02:48:06;;;;;;;;;;;;;;;9.34;49.36;100882.63;5079091;28;19943;-89
2022/04/12 02:50:31;;;;;;;;;;;;;;;9.34;49.38;100882.63;5077128;28;19935;-87
2022/04/12 02:52:57;;;;;;;;;;;;;;;9.29;49.72;100881.38;5077368;28;19916;-90
2022/04/12 02:55:22;;;;;;;;;;;;;;;9.06;49.88;100880.03;5076550;28;19921;-87
2022/04/12 02:57:47;;;;;;;;;;;;;;;9.05;50.15;100878.41;5076547;28;19927;-86
2022/04/12 03:00:13;;;;;;;;;;;;;;;9.11;49.52;100880.47;5076874;28;19935;-86
2022/04/12 03:02:38;;;;;;;;;;;;;;;8.81;50.24;100878.88;5086280;28;19947;-85
2022/04/12 03:05:04;;;;;;;;;;;;;;;8.68;50.40;100884.44;5100504;28;19905;-88
2022/04/12 03:07:29;;;;;;;;;;;;;;;8.58;51.70;100877.50;5100323;28;19912;-89
2022/04/12 03:09:55;;;;;;;;;;;;;;;8.59;51.65;100881.78;5084637;28;19932;-86
2022/04/12 03:12:20;;;;;;;;;;;;;;;8.23;52.81;100872.75;5057475;28;20277;-90
2022/04/12 03:14:45;;;;;;;;;;;;;;;8.04;53.42;100878.00;5075772;28;19971;-86
2022/04/12 03:17:11;;;;;;;;;;;;;;;8.15;53.32;100868.16;5075660;28;20382;-87
2022/04/12 03:19:36;;;;;;;;;;;;;;;8.14;53.71;100876.22;5075512;28;19920;-88
2022/04/12 03:22:02;;;;;;;;;;;;;;;8.11;53.97;100873.84;5075947;28;19920;-86
2022/04/12 03:24:30;;;;;;;;;;;;;;;8.19;53.36;100872.19;5076404;28;19921;-87
2022/04/12 03:26:56;;;;;;;;;;;;;;;8.14;53.50;100868.31;5060129;28;19917;-87
2022/04/12 03:29:22;;;;;;;;;;;;;;;8.02;54.13;100869.41;5077981;28;20336;-85
2022/04/12 03:31:48;;;;;;;;;;;;;;;7.82;54.53;100860.63;5080835;28;19920;-86
2022/04/12 03:34:13;;;;;;;;;;;;;;;8.02;54.48;100866.78;5079841;28;19921;-88
2022/04/12 03:36:38;;;;;;;;;;;;;;;7.95;53.84;100863.84;5056593;28;19924;-85
2022/04/12 03:39:10;;;;;;;;;;;;;;;7.82;54.83;100859.78;5075614;28;20020;-87
2022/04/12 03:41:36;;;;;;;;;;;;;;;7.76;54.54;100869.91;5077653;28;19920;-86
2022/04/12 03:44:01;;;;;;;;;;;;;;;7.62;55.10;100867.63;5076144;28;19924;-87
2022/04/12 03:46:26;;;;;;;;;;;;;;;7.54;55.27;100861.38;5074580;28;19956;-86
2022/04/12 03:48:52;;;;;;;;;;;;;;;7.67;54.93;100869.88;5075116;28;19964;-86
2022/04/12 03:51:18;;;;;;;;;;;;;;;7.65;55.11;100869.19;5056701;28;19965;-86
2022/04/12 03:53:44;;;;;;;;;;;;;;;7.67;55.33;100875.16;5056730;28;19920;-84
2022/04/12 03:56:09;;;;;;;;;;;;;;;7.73;55.01;100866.69;5074533;28;19943;-85
2022/04/12 03:58:38;;;;;;;;;;;;;;;7.51;55.50;100870.41;5074532;28;20075;-85
2022/04/12 04:01:04;;;;;;;;;;;;;;;7.41;55.75;100868.69;5074353;28;19921;-89
2022/04/12 04:03:30;;;;;;;;;;;;;;;7.32;56.84;100872.13;5056555;28;20019;-84
2022/04/12 04:05:55;;;;;;;;;;;;;;;7.29;56.76;100870.59;5074466;28;20011;-88
2022/04/12 04:08:24;;;;;;;;;;;;;;;7.31;56.39;100867.81;5074392;28;19920;-86
2022/04/12 04:10:50;;;;;;;;;;;;;;;7.38;56.24;100877.72;5074217;28;19931;-86
2022/04/12 04:13:17;;;;;;;;;;;;;;;7.38;56.50;100876.88;5056240;28;19919;-86
2022/04/12 04:15:42;;;;;;;;;;;;;;;7.36;55.97;100876.19;5075331;28;20426;-86
2022/04/12 04:18:08;;;;;;;;;;;;;;;7.36;56.50;100884.91;5074794;28;19920;-86
2022/04/12 04:20:33;;;;;;;;;;;;;;;7.44;55.96;100884.25;5074376;28;20364;-85
2022/04/12 04:22:59;;;;;;;;;;;;;;;7.41;56.66;100893.25;5074480;28;19920;-84
2022/04/12 04:25:24;;;;;;;;;;;;;;;7.38;56.41;100893.53;5074654;28;19990;-86
2022/04/12 04:27:50;;;;;;;;;;;;;;;7.32;56.18;100893.22;5074621;28;19921;-88
2022/04/12 04:30:17;;;;;;;;;;;;;;;7.47;56.36;100889.25;5060658;28;20427;-87
2022/04/12 04:32:46;;;;;;;;;;;;;;;7.33;57.08;100898.34;5079341;28;20328;-88
2022/04/12 04:35:12;;;;;;;;;;;;;;;7.18;57.14;100894.41;5058745;28;19925;-88
2022/04/12 04:37:45;;;;;;;;;;;;;;;7.37;56.83;100891.84;5076542;28;20027;-92
2022/04/12 04:40:13;;;;;;;;;;;;;;;7.38;57.29;100900.59;5077183;28;20006;-87
2022/04/12 04:42:40;;;;;;;;;;;;;;;7.53;56.25;100899.25;5076762;28;19920;-91
2022/04/12 04:45:10;;;;;;;;;;;;;;;7.40;56.25;100896.84;5075870;28;19920;-88
2022/04/12 04:47:47;;;;;;;;;;;;;;;7.14;57.93;100898.25;5071476;28;19931;-86
2022/04/12 04:50:13;;;;;;;;;;;;;;;7.08;57.81;100899.63;5075598;28;19921;-84
2022/04/12 04:52:39;;;;;;;;;;;;;;;7.18;57.34;100907.59;5066581;28;19952;-83
2022/04/12 04:55:05;;;;;;;;;;;;;;;7.47;57.66;100908.56;5067417;28;19963;-85
2022/04/12 04:57:33;;;;;;;;;;;;;;;7.75;55.88;100910.47;5046937;28;20270;-84
2022/04/12 05:00:02;;;;;;;;;;;;;;;7.87;56.07;100910.34;5042303;28;19925;-83
2022/04/12 05:02:28;;;;;;;;;;;;;;;7.92;56.02;100905.50;5053881;28;20366;-87
2022/04/12 05:04:53;;;;;;;;;;;;;;;8.02;56.84;100909.81;5055872;28;19920;-85
2022/04/12 05:07:25;;;;;;;;;;;;;;;7.88;57.05;100915.50;5053887;28;19994;-86
2022/04/12 05:09:51;;;;;;;;;;;;;;;7.98;57.36;100916.34;5022639;28;19921;-86
2022/04/12 05:12:17;;;;;;;;;;;;;;;8.24;57.26;100916.66;5055381;28;19921;-86
2022/04/12 05:14:42;;;;;;;;;;;;;;;8.43;56.14;100916.72;5055548;28;20381;-88
2022/04/12 05:17:07;;;;;;;;;;;;;;;8.57;56.30;100912.81;5056846;28;19924;-88
2022/04/12 05:19:33;;;;;;;;;;;;;;;8.37;56.28;100911.97;5057251;28;19925;-88
2022/04/12 05:21:59;;;;;;;;;;;;;;;8.54;57.21;100911.28;5040362;28;20008;-90
2022/04/12 05:24:24;;;;;;;;;;;;;;;8.91;54.96;100907.91;5036182;28;19917;-85
2022/04/12 05:26:50;;;;;;;;;;;;;;;9.54;54.70;100917.75;5069602;28;19921;-86
2022/04/12 05:29:16;;;;;;;;;;;;;;;9.12;54.84;100913.84;5057341;28;19921;-87
2022/04/12 05:31:41;;;;;;;;;;;;;;;8.48;55.80;100919.78;5056991;28;20456;-86
2022/04/12 05:34:07;;;;;;;;;;;;;;;8.67;55.51;100916.28;5055265;28;19960;-87
2022/04/12 05:36:32;;;;;;;;;;;;;;;9.69;53.10;100921.56;5055344;28;19917;-87
2022/04/12 05:38:58;;;;;;;;;;;;;;;9.40;52.64;100927.97;5054509;28;20297;-86
2022/04/12 05:41:23;;;;;;;;;;;;;;;9.37;53.03;100930.91;5038207;28;19921;-87
2022/04/12 05:43:50;;;;;;;;;;;;;;;9.45;53.11;100934.47;5055712;28;19927;-86
2022/04/12 05:46:16;;;;;;;;;;;;;;;10.14;51.36;100944.66;5037381;28;19921;-89
2022/04/12 05:48:41;;;;;;;;;;;;;;;9.92;51.81;100945.84;5054984;28;20003;-89
2022/04/12 05:51:06;;;;;;;;;;;;;;;9.74;51.58;100934.38;5038367;28;19924;-88
2022/04/12 05:53:32;;;;;;;;;;;;;;;10.87;49.29;100939.03;5037095;28;19925;-87
2022/04/12 05:55:58;;;;;;;;;;;;;;;10.72;48.39;100937.94;5036483;28;20381;-88
2022/04/12 05:58:24;;;;;;;;;;;;;;;10.77;48.71;100946.25;5055712;28;19921;-87
2022/04/12 06:00:50;;;;;;;;;;;;;;;10.27;50.67;100945.13;5058254;28;19920;-88
2022/04/12 06:03:16;;;;;;;;;;;;;;;10.88;47.92;100940.72;5050304;28;19921;-88
2022/04/12 06:05:49;;;;;;;;;;;;;;;10.74;49.18;100941.25;5045296;28;19932;-86
2022/04/12 06:08:14;;;;;;;;;;;;;;;11.16;48.18;100948.53;5043232;28;19944;-88
2022/04/12 06:10:40;;;;;;;;;;;;;;;11.19;47.44;100948.22;5044365;28;19924;-84
2022/04/12 06:13:05;;;;;;;;;;;;;;;11.03;48.32;100948.13;5074004;28;19966;-86
2022/04/12 06:15:31;;;;;;;;;;;;;;;10.63;49.40;100952.09;5067883;28;19920;-87
2022/04/12 06:17:56;;;;;;;;;;;;;;;11.43;48.03;100951.03;5058690;28;19921;-86
2022/04/12 06:20:21;;;;;;;;;;;;;;;12.70;44.65;100958.78;5040524;28;19929;-87
2022/04/12 06:22:47;;;;;;;;;;;;;;;14.13;39.99;100965.00;5058830;28;20308;-88
2022/04/12 06:25:22;;;;;;;;;;;;;;;14.81;38.09;100959.78;5058500;28;19917;-88
2022/04/12 06:27:51;;;;;;;;;;;;;;;16.00;36.20;100963.28;5057635;28;19921;-90
2022/04/12 06:30:21;;;;;;;;;;;;;;;15.08;37.09;100962.91;5039865;28;19919;-89
2022/04/12 06:32:47;;;;;;;;;;;;;;;15.28;36.28;100964.06;5057542;28;19924;-87
2022/04/12 06:35:13;;;;;;;;;;;;;;;14.32;39.19;100969.06;5057141;28;19970;-84
2022/04/12 06:37:42;;;;;;;;;;;;;;;13.29;40.41;100965.63;5057595;28;19924;-87
2022/04/12 06:40:08;;;;;;;;;;;;;;;13.39;41.61;100970.75;5057549;28;19968;-88
2022/04/12 06:42:34;;;;;;;;;;;;;;;13.43;40.69;100961.44;5039260;28;20439;-89
2022/04/12 06:45:00;;;;;;;;;;;;;;;13.00;41.99;100959.13;5040030;28;19921;-91
2022/04/12 06:47:25;;;;;;;;;;;;;;;12.48;43.30;100970.06;5058088;28;20297;-85
2022/04/12 06:49:51;;;;;;;;;;;;;;;13.03;42.02;100969.44;5056902;28;19918;-88
2022/04/12 06:52:17;;;;;;;;;;;;;;;12.96;42.38;100964.78;5056264;28;19921;-88
2022/04/12 06:54:43;;;;;;;;;;;;;;;12.31;44.05;100963.06;5056320;28;20274;-88
2022/04/12 06:57:12;;;;;;;;;;;;;;;12.47;44.26;100963.06;5053993;28;19945;-85
2022/04/12 06:59:38;;;;;;;;;;;;;;;12.67;43.93;100960.94;5057726;28;20020;-84
2022/04/12 07:02:04;;;;;;;;;;;;;;;13.39;42.08;100965.44;5057858;28;19948;-85
2022/04/12 07:04:29;;;;;;;;;;;;;;;14.89;39.25;100961.56;5075717;28;19935;-88
2022/04/12 07:06:56;;;;;;;;;;;;;;;16.14;36.98;100963.44;5061149;28;19925;-87
2022/04/12 07:09:24;;;;;;;;;;;;;;;16.76;35.03;100964.56;5063053;28;19925;-88
2022/04/12 07:11:50;;;;;;;;;;;;;;;17.10;34.56;100961.16;5055852;28;19920;-85
2022/04/12 07:14:16;;;;;;;;;;;;;;;18.00;33.50;100970.00;5067521;28;19927;-85
2022/04/12 07:16:41;;;;;;;;;;;;;;;18.61;32.06;100978.09;5088605;28;20353;-86
2022/04/12 07:19:06;;;;;;;;;;;;;;;19.20;30.88;100969.25;5077367;28;19973;-85
2022/04/12 07:21:32;;;;;;;;;;;;;;;18.74;32.12;100970.06;5075167;28;20467;-86
2022/04/12 07:24:00;;;;;;;;;;;;;;;18.62;31.83;100974.38;5075194;28;20021;-85
2022/04/12 07:26:26;;;;;;;;;;;;;;;19.04;31.55;100974.00;5057437;28;20396;-86
2022/04/12 07:28:52;;;;;;;;;;;;;;;18.48;32.65;100976.16;5074978;28;19920;-86
2022/04/12 07:31:17;;;;;;;;;;;;;;;18.36;32.84;100971.59;5075582;28;19916;-85
2022/04/12 07:33:43;;;;;;;;;;;;;;;17.47;33.98;100968.00;5078425;28;19982;-88
2022/04/12 07:36:08;;;;;;;;;;;;;;;16.83;34.55;100975.31;5082436;28;19927;-84
2022/04/12 07:38:33;;;;;;;;;;;;;;;16.58;35.17;100980.22;5082299;28;20411;-86
2022/04/12 07:40:59;;;;;;;;;;;;;;;15.97;36.87;100979.66;5083200;28;19947;-86
2022/04/12 07:43:24;;;;;;;;;;;;;;;15.66;38.18;100975.53;5098322;28;19928;-85
2022/04/12 07:45:50;;;;;;;;;;;;;;;15.76;38.68;100974.25;5098817;28;19920;-86
2022/04/12 07:48:15;;;;;;;;;;;;;;;17.31;36.74;100974.50;5099236;28;19904;-88
2022/04/12 07:50:43;;;;;;;;;;;;;;;16.93;38.29;100979.34;5099287;28;19909;-86
2022/04/12 07:53:08;;;;;;;;;;;;;;;17.42;36.32;100975.81;5068967;28;19928;-86
2022/04/12 07:55:34;;;;;;;;;;;;;;;18.12;34.77;100989.03;5080210;28;20076;-86
2022/04/12 07:57:59;;;;;;;;;;;;;;;17.76;36.07;100983.91;5076574;28;19920;-86
2022/04/12 08:00:24;;;;;;;;;;;;;;;18.29;35.54;100993.03;5073974;28;20435;-85
2022/04/12 08:02:50;;;;;;;;;;;;;;;18.19;35.14;100994.44;5074870;28;20019;-87
2022/04/12 08:05:15;;;;;;;;;;;;;;;18.58;33.51;100998.13;5073978;28;19978;-86
2022/04/12 08:07:47;;;;;;;;;;;;;;;18.66;33.28;100997.09;5078245;28;19943;-86
2022/04/12 08:10:21;;;;;;;;;;;;;;;19.98;30.58;101001.44;5094420;28;19920;-86
2022/04/12 08:12:47;;;;;;;;;;;;;;;20.08;30.63;100999.09;5076514;28;19997;-86
2022/04/12 08:15:14;;;;;;;;;;;;;;;20.14;30.72;100992.06;5093801;28;19970;-85
2022/04/12 08:17:40;;;;;;;;;;;;;;;20.69;30.94;100995.94;5094711;28;19924;-82
2022/04/12 08:20:06;;;;;;;;;;;;;;;20.66;30.38;101001.75;5081528;28;19912;-83
2022/04/12 08:22:32;;;;;;;;;;;;;;;20.43;29.56;101001.47;5093790;28;20377;-83
2022/04/12 08:24:58;;;;;;;;;;;;;;;20.42;30.14;100997.94;5093940;28;19927;-84
2022/04/12 08:27:24;;;;;;;;;;;;;;;21.06;29.47;100996.94;5093531;28;20270;-83
2022/04/12 08:29:49;;;;;;;;;;;;;;;20.70;29.68;100992.22;5093918;28;19973;-85
2022/04/12 08:32:16;;;;;;;;;;;;;;;21.89;27.56;101002.84;5088161;28;19952;-85
2022/04/12 08:34:42;;;;;;;;;;;;;;;21.34;27.38;100993.84;5079908;28;19947;-85
2022/04/12 08:37:07;;;;;;;;;;;;;;;22.40;27.29;100997.06;5098524;28;19920;-83
2022/04/12 08:39:33;;;;;;;;;;;;;;;21.79;26.38;100997.13;5095519;28;19927;-84
2022/04/12 08:41:59;;;;;;;;;;;;;;;21.64;27.06;100994.81;5095845;28;20434;-85
2022/04/12 08:44:25;;;;;;;;;;;;;;;21.95;25.64;100994.69;5078787;28;19920;-87
2022/04/12 08:46:51;;;;;;;;;;;;;;;21.36;26.83;100992.56;5060277;28;19916;-88
2022/04/12 08:49:17;;;;;;;;;;;;;;;19.45;29.70;100992.66;5096943;28;19927;-87
2022/04/12 08:51:45;;;;;;;;;;;;;;;20.50;29.28;100991.50;5061227;28;19920;-87
2022/04/12 08:54:11;;;;;;;;;;;;;;;21.17;28.41;100992.75;5094951;28;19930;-88
2022/04/12 08:56:37;;;;;;;;;;;;;;;21.25;28.58;100995.16;5095046;28;19920;-85
2022/04/12 08:59:03;;;;;;;;;;;;;;;21.04;26.56;101005.25;5094351;28;19966;-87
2022/04/12 09:01:29;;;;;;;;;;;;;;;21.52;26.58;101007.34;5076172;28;19927;-85
2022/04/12 09:03:54;;;;;;;;;;;;;;;21.30;27.47;101003.41;5093569;28;19924;-85
2022/04/12 09:06:20;;;;;;;;;;;;;;;21.57;26.65;100994.03;5094396;28;20300;-87
2022/04/12 09:08:45;;;;;;;;;;;;;;;21.44;26.92;100996.88;5093813;28;19927;-86
2022/04/12 09:11:13;;;;;;;;;;;;;;;20.52;28.71;100992.09;5094477;28;19927;-85
2022/04/12 09:13:40;;;;;;;;;;;;;;;20.37;29.18;100988.88;5094249;28;20284;-84
2022/04/12 09:16:09;;;;;;;;;;;;;;;20.26;29.27;100981.44;5075337;28;19949;-87
2022/04/12 09:18:36;;;;;;;;;;;;;;;20.76;29.23;100991.34;5082866;28;19924;-85
2022/04/12 09:21:09;;;;;;;;;;;;;;;21.20;29.27;100986.91;5064463;28;20294;-86
2022/04/12 09:23:35;;;;;;;;;;;;;;;21.34;30.07;100988.47;5055724;28;19920;-87
2022/04/12 09:26:00;;;;;;;;;;;;;;;21.27;30.30;100983.13;5054653;28;20021;-86
2022/04/12 09:28:38;;;;;;;;;;;;;;;21.43;27.98;100987.94;5053386;28;20283;-88
2022/04/12 09:31:09;;;;;;;;;;;;;;;21.52;26.65;100983.91;5035592;28;19974;-87
2022/04/12 09:33:38;;;;;;;;;;;;;;;22.21;26.74;100984.63;5057509;28;20397;-86
2022/04/12 09:36:05;;;;;;;;;;;;;;;22.30;27.70;100988.69;5059152;28;19921;-85
2022/04/12 09:38:31;;;;;;;;;;;;;;;22.33;27.62;100982.81;5077405;28;19966;-84
2022/04/12 09:41:15;;;;;;;;;;;;;;;22.59;27.14;100990.56;5077273;28;19921;-84
2022/04/12 09:44:07;;;;;;;;;;;;;;;22.81;27.36;100985.47;5078126;28;19938;-86
2022/04/12 09:46:33;;;;;;;;;;;;;;;22.50;26.80;100989.25;5076949;28;19924;-87
2022/04/12 09:48:59;;;;;;;;;;;;;;;22.21;27.49;100979.22;5081833;28;19955;-84
2022/04/12 09:51:25;;;;;;;;;;;;;;;22.36;27.46;100972.38;5088492;28;19921;-83
2022/04/12 09:53:51;;;;;;;;;;;;;;;21.59;28.07;100975.75;5084096;28;19920;-81
2022/04/12 09:56:36;;;;;;;;;;;;;;;21.71;26.98;100970.47;5081797;28;19920;-83
2022/04/12 09:59:02;;;;;;;;;;;;;;;21.76;27.53;100970.59;5077666;28;19928;-84
2022/04/12 10:01:28;;;;;;;;;;;;;;;21.96;26.35;100963.97;5077690;28;19921;-85
2022/04/12 10:03:55;;;;;;;;;;;;;;;21.73;26.19;100963.78;5079557;28;19931;-86
2022/04/12 10:06:21;;;;;;;;;;;;;;;21.67;26.27;100959.28;5081268;28;19964;-84
2022/04/12 10:08:50;;;;;;;;;;;;;;;22.56;27.46;100961.31;5059965;28;20320;-86
2022/04/12 10:11:16;;;;;;;;;;;;;;;23.14;27.11;100953.34;5077876;28;19920;-85
2022/04/12 10:13:42;;;;;;;;;;;;;;;23.11;25.95;100962.75;5080336;28;20340;-84
2022/04/12 10:16:08;;;;;;;;;;;;;;;22.22;26.05;100957.41;5081118;28;19920;-83
2022/04/12 10:18:33;;;;;;;;;;;;;;;22.34;26.51;100952.06;5077674;28;19990;-86
2022/04/12 10:20:59;;;;;;;;;;;;;;;22.56;25.90;100951.34;5059467;28;19921;-85
2022/04/12 10:23:26;;;;;;;;;;;;;;;22.60;26.13;100943.59;5077322;28;19924;-86
2022/04/12 10:25:52;;;;;;;;;;;;;;;22.03;28.34;100943.13;5064716;28;19965;-86
2022/04/12 10:28:19;;;;;;;;;;;;;;;22.02;28.53;100930.66;5097451;28;19920;-85
2022/04/12 10:30:44;;;;;;;;;;;;;;;22.54;27.63;100930.97;5097044;28;19920;-85
2022/04/12 10:33:15;;;;;;;;;;;;;;;23.00;26.23;100930.31;5097166;28;19920;-85
2022/04/12 10:35:44;;;;;;;;;;;;;;;22.98;24.81;100930.53;5101924;28;20498;-86
2022/04/12 10:38:13;;;;;;;;;;;;;;;21.66;27.39;100927.94;5093908;28;19974;-85
2022/04/12 10:40:43;;;;;;;;;;;;;;;22.09;27.91;100928.72;5072381;28;19916;-86
2022/04/12 10:43:10;;;;;;;;;;;;;;;22.12;27.53;100925.56;5097718;28;19919;-87
2022/04/12 10:45:37;;;;;;;;;;;;;;;22.04;26.95;100931.25;5081190;28;19908;-86
2022/04/12 10:48:03;;;;;;;;;;;;;;;21.34;27.80;100908.41;5064003;28;20007;-88
2022/04/12 10:50:39;;;;;;;;;;;;;;;21.60;26.37;100900.00;5092172;28;19985;-87
2022/04/12 10:53:05;;;;;;;;;;;;;;;22.43;25.63;100919.09;5075866;28;19944;-86
2022/04/12 10:55:37;;;;;;;;;;;;;;;22.14;25.63;100909.09;5070447;28;19920;-87
2022/04/12 10:58:12;;;;;;;;;;;;;;;22.26;26.12;100901.06;5068964;28;19917;-86
2022/04/12 11:00:39;;;;;;;;;;;;;;;22.35;25.71;100900.50;5053672;28;19927;-89
2022/04/12 11:03:05;;;;;;;;;;;;;;;22.97;24.80;100898.31;5041489;28;20293;-86
2022/04/12 11:05:33;;;;;;;;;;;;;;;23.63;25.02;100892.56;5078635;28;19920;-83
2022/04/12 11:07:59;;;;;;;;;;;;;;;23.83;25.12;100892.16;5083408;28;19924;-87
2022/04/12 11:10:24;;;;;;;;;;;;;;;24.18;26.55;100895.56;5048869;28;19921;-81
2022/04/12 11:13:02;;;;;;;;;;;;;;;24.10;25.94;100893.22;5078443;28;19909;-86
2022/04/12 11:15:28;;;;;;;;;;;;;;;23.86;25.48;100883.56;5072980;28;19941;-87
2022/04/12 11:18:07;;;;;;;;;;;;;;;23.32;25.81;100882.09;5084185;28;19967;-88
2022/04/12 11:20:33;;;;;;;;;;;;;;;23.84;24.83;100872.13;5077174;28;20422;-90
2022/04/12 11:23:02;;;;;;;;;;;;;;;23.77;24.60;100879.56;5068912;28;20016;-91
2022/04/12 11:25:29;;;;;;;;;;;;;;;23.57;25.56;100879.97;5075329;28;19927;-88
2022/04/12 11:27:56;;;;;;;;;;;;;;;23.51;24.69;100876.34;5051039;28;20341;-89
2022/04/12 11:30:21;;;;;;;;;;;;;;;23.06;24.27;100864.47;5063399;28;19936;-91
2022/04/12 11:32:47;;;;;;;;;;;;;;;23.39;24.15;100869.28;5055201;28;19962;-88
2022/04/12 11:35:13;;;;;;;;;;;;;;;23.09;25.27;100864.00;5039092;28;19925;-91
2022/04/12 11:37:39;;;;;;;;;;;;;;;22.57;25.78;100871.09;5040171;28;19920;-82
2022/04/12 11:40:05;;;;;;;;;;;;;;;22.82;25.38;100874.47;5066188;28;19929;-83
2022/04/12 11:42:30;;;;;;;;;;;;;;;22.40;25.04;100865.56;5057169;28;19921;-85
2022/04/12 11:44:57;;;;;;;;;;;;;;;22.25;24.53;100880.50;5059416;28;19960;-84
2022/04/12 11:47:33;;;;;;;;;;;;;;;22.19;25.16;100868.75;5070015;28;19921;-85
2022/04/12 11:49:59;;;;;;;;;;;;;;;22.01;26.22;100856.13;5062063;28;19921;-88
2022/04/12 11:52:25;;;;;;;;;;;;;;;21.09;27.48;100857.19;5074248;28;19952;-87
2022/04/12 11:54:51;;;;;;;;;;;;;;;20.78;28.96;100853.75;5064992;28;19925;-86
2022/04/12 11:57:21;;;;;;;;;;;;;;;20.48;27.72;100850.88;5046096;28;20381;-83
2022/04/12 11:59:48;;;;;;;;;;;;;;;19.91;28.79;100847.28;5036927;28;19920;-85
2022/04/12 12:02:14;;;;;;;;;;;;;;;19.88;29.63;100852.25;5038179;28;19927;-87
2022/04/12 12:04:44;;;;;;;;;;;;;;;19.59;29.84;100848.22;5071050;28;19986;-89
2022/04/12 12:07:10;;;;;;;;;;;;;;;19.36;29.53;100842.50;5057202;28;20329;-89
2022/04/12 12:09:35;;;;;;;;;;;;;;;19.77;28.56;100850.22;5055587;28;19974;-89
2022/04/12 12:12:09;;;;;;;;;;;;;;;19.26;29.75;100851.00;5057794;28;19982;-88
2022/04/12 12:14:35;;;;;;;;;;;;;;;19.30;29.26;100838.78;5053699;28;19928;-84
2022/04/12 12:17:01;;;;;;;;;;;;;;;18.86;30.20;100830.59;5063558;28;19931;-89
2022/04/12 12:19:27;;;;;;;;;;;;;;;18.62;29.10;100828.56;5073221;28;20380;-86
2022/04/12 12:21:53;;;;;;;;;;;;;;;18.91;28.76;100828.13;5062308;28;19947;-88
2022/04/12 12:24:18;;;;;;;;;;;;;;;19.12;28.57;100835.97;5047323;28;19917;-88
2022/04/12 12:26:44;;;;;;;;;;;;;;;19.19;27.73;100835.94;5068274;28;19920;-87
2022/04/12 12:29:12;;;;;;;;;;;;;;;19.37;27.79;100838.78;5044514;28;19948;-87
2022/04/12 12:31:41;;;;;;;;;;;;;;;19.47;28.45;100831.13;5057799;28;19928;-86
2022/04/12 12:34:08;;;;;;;;;;;;;;;19.43;28.93;100828.03;5040597;28;19960;-85
2022/04/12 12:36:33;;;;;;;;;;;;;;;19.31;29.27;100828.88;5043513;28;19960;-87
2022/04/12 12:38:58;;;;;;;;;;;;;;;19.36;30.19;100834.41;5044610;28;19921;-85
2022/04/12 12:41:25;;;;;;;;;;;;;;;19.30;29.98;100828.03;5059690;28;19963;-89
2022/04/12 12:43:55;;;;;;;;;;;;;;;19.22;29.62;100819.41;5059320;28;19927;-86
2022/04/12 12:46:20;;;;;;;;;;;;;;;19.31;29.76;100823.50;5055469;28;19920;-86